Test XHTML 1.0 Strict Page for WU-History Testing
Histórico de la Estación METEOCORUÑA
Diario Datos del Mayo 17, 2018 Unidades:  Inglés    Metrico   Ambos
« Prev Dia
Sig Dia »
Diario Semanal Mensual Anual Rango
  Max: Min: Media:
Temp: TemperatureC °F 12.1 °F 13 °F
Rocío: DewpointC °F -73.3 °F 6.8 °F
Humedad: Humidity % 79 % 86 %
Vel. viento: WindSpeedKMH mph 3.2 mph 11.2 mph
Racha: WindSpeedGustKMH mph - -
Viento:- - South
Presión: PressurehPa in -3386.0 in -
Lluvia: 0.0 in    
Historical Graphs
 
 
Busqueda de Mayo 17, 2018
Hora Temp Rocío Presión Viento Vel. viento Racha Humedad Ratio lluvia (/hora) Radiación
TemperatureC °F DewpointC °F PressurehPa in Calm     Humidity % HourlyPrecipMM in SolarRadiationWatts/m^2 W/m2
00:00 13.0 °F 10.2 °F 1018.5 in North 25.9 mph 25.9 mph 83 % 0.0 in 0.0 W/m2
00:05 13.0 °F 10.0 °F 1018.8 in NNE 12.9 mph 24.1 mph 82 % 0.0 in 0 W/m2
00:10 12.9 °F 10.1 °F 1018.5 in NE 18.5 mph 18.5 mph 83 % 0.0 in 0.0 W/m2
00:15 12.9 °F 10.1 °F 1019.2 in NNE 9.7 mph 20.9 mph 83 % 0.0 in 0 W/m2
00:20 12.8 °F 9.8 °F 1018.5 in NNE 25.9 mph 25.9 mph 82 % 0.0 in 0.0 W/m2
00:25 12.9 °F 9.9 °F 1018.5 in NNW 20.9 mph 20.9 mph 82 % 0.0 in 0.0 W/m2
00:30 12.9 °F 9.9 °F 1018.5 in North 14.5 mph 14.5 mph 82 % 0.0 in 0.0 W/m2
00:35 12.8 °F 10.0 °F 1018.5 in NW 17.7 mph 17.7 mph 83 % 0.0 in 0.0 W/m2
00:40 12.8 °F 10.0 °F 1018.5 in NNE 16.1 mph 16.1 mph 83 % 0.0 in 0.0 W/m2
00:45 12.8 °F 10.0 °F 1018.5 in North 19.3 mph 19.3 mph 83 % 0.0 in 0.0 W/m2
00:50 12.8 °F 10.0 °F 1018.5 in NNE 16.7 mph 16.7 mph 83 % 0.0 in 0.0 W/m2
00:55 12.8 °F 10.0 °F 1018.8 in NNE 11.3 mph 22.5 mph 83 % 0.0 in 0 W/m2
01:00 12.8 °F 10.0 °F 1018.8 in NNE 11.3 mph 16.1 mph 83 % 0.0 in 0 W/m2
01:05 12.8 °F 9.9 °F 1018.5 in North 14.8 mph 14.8 mph 83 % 0.0 in 0.0 W/m2
01:10 12.8 °F 9.9 °F 1018.5 in North 16.7 mph 16.7 mph 83 % 0.0 in 0.0 W/m2
01:15 12.8 °F 10.0 °F 1018.8 in NNE 9.7 mph 14.5 mph 83 % 0.0 in 0 W/m2
01:20 12.8 °F 10.2 °F 1018.5 in NNE 14.8 mph 14.8 mph 84 % 0.0 in 0.0 W/m2
01:25 12.8 °F 10.2 °F 1018.5 in NE 13.0 mph 13.0 mph 84 % 0.0 in 0.0 W/m2
01:30 12.8 °F 10.2 °F 1018.2 in NNE 18.5 mph 18.5 mph 84 % 0.0 in 0.0 W/m2
01:35 12.8 °F 10.2 °F 1018.2 in NE 16.1 mph 16.1 mph 84 % 0.0 in 0.0 W/m2
01:40 12.8 °F 10.2 °F 1018.2 in North 11.3 mph 11.3 mph 84 % 0.0 in 0.0 W/m2
01:45 12.7 °F 10.3 °F 1018.2 in NNE 14.8 mph 14.8 mph 85 % 0.0 in 0.0 W/m2
01:50 12.7 °F 10.2 °F 1018.5 in North 8.0 mph 14.5 mph 85 % 0.0 in 0 W/m2
01:55 12.7 °F 10.3 °F 1018.2 in NNE 12.9 mph 12.9 mph 85 % 0.0 in 0.0 W/m2
02:00 12.7 °F 10.2 °F 1018.2 in NNE 14.8 mph 14.8 mph 85 % 0.0 in 0.0 W/m2
02:05 12.6 °F 10.2 °F 1017.8 in NNE 14.8 mph 14.8 mph 85 % 0.0 in 0.0 W/m2
02:10 12.7 °F 10.2 °F 1017.8 in NNW 16.7 mph 16.7 mph 85 % 0.0 in 0.0 W/m2
02:15 12.6 °F 10.2 °F 1017.8 in NNE 13.0 mph 13.0 mph 85 % 0.0 in 0.0 W/m2
02:20 12.6 °F 10.2 °F 1017.8 in North 11.3 mph 11.3 mph 85 % 0.0 in 0.0 W/m2
02:25 12.6 °F 10.2 °F 1017.8 in North 16.7 mph 16.7 mph 85 % 0.0 in 0.0 W/m2
02:30 12.6 °F 10.3 °F 1017.8 in NNW 17.7 mph 17.7 mph 86 % 0.0 in 0.0 W/m2
02:35 12.6 °F 10.3 °F 1017.8 in North 11.3 mph 11.3 mph 86 % 0.0 in 0.0 W/m2
02:40 12.6 °F 10.3 °F 1017.8 in NE 13.0 mph 13.0 mph 86 % 0.0 in 0.0 W/m2
02:45 12.6 °F 10.3 °F 1017.8 in North 12.9 mph 12.9 mph 86 % 0.0 in 0.0 W/m2
02:50 12.5 °F 10.2 °F 1018.2 in NNW 4.8 mph 14.5 mph 86 % 0.0 in 0 W/m2
02:55 12.5 °F 10.2 °F 1017.8 in NW 16.7 mph 16.7 mph 86 % 0.0 in 0.0 W/m2
03:00 12.5 °F 10.2 °F 1017.8 in North 11.1 mph 11.1 mph 86 % 0.0 in 0.0 W/m2
03:05 12.4 °F 10.2 °F 1017.8 in NNW 14.5 mph 14.5 mph 86 % 0.0 in 0.0 W/m2
03:10 12.4 °F 10.2 °F 1017.8 in NNW 17.7 mph 17.7 mph 86 % 0.0 in 0.0 W/m2
03:15 12.4 °F 10.2 °F 1017.8 in NNW 14.5 mph 14.5 mph 86 % 0.0 in 0.0 W/m2
03:20 12.4 °F 10.3 °F 1018.2 in North 8.0 mph 17.7 mph 87 % 0.0 in 0 W/m2
03:25 12.4 °F 10.3 °F 1018.2 in North 8.0 mph 17.7 mph 87 % 0.0 in 0 W/m2
03:30 12.4 °F 10.3 °F 1017.8 in North 9.7 mph 12.9 mph 87 % 0.0 in 0 W/m2
03:35 12.4 °F 10.3 °F 1017.8 in North 8.0 mph 16.1 mph 87 % 0.0 in 0 W/m2
03:40 12.4 °F 10.3 °F 1017.8 in North 6.4 mph 14.5 mph 87 % 0.0 in 0 W/m2
03:45 12.3 °F 10.2 °F 1017.8 in NNE 6.4 mph 12.9 mph 87 % 0.0 in 0 W/m2
03:50 12.3 °F 10.2 °F 1017.8 in NNE 6.4 mph 12.9 mph 87 % 0.0 in 0 W/m2
03:55 12.3 °F 10.2 °F 1017.8 in North 4.8 mph 12.9 mph 87 % 0.0 in 0 W/m2
04:00 12.3 °F 10.2 °F 1017.8 in North 4.8 mph 14.5 mph 87 % 0.0 in 0 W/m2
04:05 12.3 °F 10.2 °F 1017.8 in NNE 4.8 mph 12.9 mph 87 % 0.0 in 0 W/m2
04:10 12.2 °F 10.1 °F 1017.8 in NE 4.8 mph 9.7 mph 87 % 0.0 in 0 W/m2
04:15 12.2 °F 10.1 °F 1017.8 in NE 4.8 mph 12.9 mph 87 % 0.0 in 0 W/m2
04:20 12.2 °F 10.1 °F 1017.5 in NNE 4.8 mph 14.5 mph 87 % 0.0 in 0 W/m2
04:25 12.2 °F 10.1 °F 1017.5 in NNE 6.4 mph 19.3 mph 87 % 0.0 in 0 W/m2
04:30 12.3 °F 10.2 °F 1017.2 in North 14.8 mph 14.8 mph 87 % 0.0 in 0.0 W/m2
04:35 12.3 °F 10.2 °F 1017.5 in North 8.0 mph 19.3 mph 87 % 0.0 in 0 W/m2
04:40 12.3 °F 10.2 °F 1017.5 in North 9.7 mph 16.1 mph 87 % 0.0 in 0 W/m2
04:45 12.3 °F 10.2 °F 1017.5 in North 9.7 mph 17.7 mph 87 % 0.0 in 0 W/m2
04:50 12.3 °F 10.2 °F 1017.5 in NNE 8.0 mph 16.1 mph 87 % 0.0 in 0 W/m2
04:55 12.3 °F 10.2 °F 1017.5 in North 8.0 mph 14.5 mph 87 % 0.0 in 0 W/m2
05:00 12.3 °F 10.2 °F 1017.5 in North 6.4 mph 14.5 mph 87 % 0.0 in 0 W/m2
05:05 12.2 °F 10.1 °F 1017.5 in North 4.8 mph 9.7 mph 87 % 0.0 in 0 W/m2
05:10 12.2 °F 10.1 °F 1017.5 in North 3.2 mph 19.3 mph 87 % 0.0 in 0 W/m2
05:15 12.2 °F 10.1 °F 1017.5 in NNW 4.8 mph 16.1 mph 87 % 0.0 in 0 W/m2
05:20 12.2 °F 10.1 °F 1017.5 in NNE 4.8 mph 16.1 mph 87 % 0.0 in 0 W/m2
05:25 12.1 °F 10.0 °F 1017.5 in North 4.8 mph 9.7 mph 87 % 0.0 in 0 W/m2
05:30 12.1 °F 10.0 °F 1017.5 in NNE 4.8 mph 14.5 mph 87 % 0.0 in 0 W/m2
05:35 12.1 °F 10.2 °F 1017.5 in NNE 4.8 mph 14.5 mph 88 % 0.0 in 0 W/m2
05:40 12.1 °F 10.2 °F 1017.5 in NNE 6.4 mph 16.1 mph 88 % 0.0 in 0 W/m2
05:45 12.1 °F 10.0 °F 1017.5 in North 6.4 mph 14.5 mph 87 % 0.0 in 0 W/m2
05:50 12.2 °F 10.1 °F 1017.2 in North 6.4 mph 14.5 mph 87 % 0.0 in 0 W/m2
05:55 12.2 °F 10.1 °F 1017.2 in NNE 8.0 mph 12.9 mph 87 % 0.0 in 0 W/m2
06:00 12.2 °F 10.1 °F 1017.2 in NNE 8.0 mph 14.5 mph 87 % 0.0 in 0 W/m2
06:05 12.2 °F 10.1 °F 1017.5 in NNE 6.4 mph 9.7 mph 87 % 0.0 in 0 W/m2
06:10 12.2 °F 10.1 °F 1017.5 in North 6.4 mph 14.5 mph 87 % 0.0 in 0 W/m2
06:15 12.2 °F 10.1 °F 1017.5 in NNE 6.4 mph 16.1 mph 87 % 0.0 in 0 W/m2
06:20 12.2 °F 10.1 °F 1017.2 in NNE 6.4 mph 14.5 mph 87 % 0.0 in 0 W/m2
06:25 12.2 °F 10.1 °F 1017.2 in NNE 8.0 mph 16.1 mph 87 % 0.0 in 0 W/m2
06:30 12.2 °F 10.1 °F 1017.2 in North 9.7 mph 16.1 mph 87 % 0.0 in 0 W/m2
06:35 12.2 °F 10.1 °F 1017.2 in NNE 9.7 mph 17.7 mph 87 % 0.0 in 0 W/m2
06:40 12.2 °F 10.1 °F 1017.2 in NNE 9.7 mph 16.1 mph 87 % 0.0 in 0 W/m2
06:46 12.2 °F 10.1 °F 1017.2 in North 9.7 mph 16.1 mph 87 % 0.0 in 0 W/m2
06:51 12.2 °F 10.1 °F 1017.2 in North 9.7 mph 17.7 mph 87 % 0.0 in 0 W/m2
06:56 12.2 °F 10.1 °F 1017.2 in North 8.0 mph 16.1 mph 87 % 0.0 in 0 W/m2
07:01 12.2 °F 10.1 °F 1017.2 in North 8.0 mph 17.7 mph 87 % 0.0 in 0 W/m2
07:03 12.2 °F 10.1 °F 1016.8 in NNW 16.7 mph 16.7 mph 87 % 0.0 in 0.0 W/m2
07:06 12.1 °F 10.0 °F 1017.2 in North 8.0 mph 14.5 mph 87 % 0.0 in 0 W/m2
07:11 12.2 °F 10.1 °F 1016.8 in NNW 16.7 mph 16.7 mph 87 % 0.0 in 0.0 W/m2
07:14 12.1 °F 10.0 °F 1016.8 in North 11.1 mph 11.1 mph 87 % 0.0 in 0.0 W/m2
07:16 12.1 °F 10.0 °F 1017.2 in North 6.4 mph 11.3 mph 87 % 0.0 in 9 W/m2
07:21 12.1 °F 10.0 °F 1016.8 in North 11.1 mph 11.1 mph 87 % 0.0 in 0.0 W/m2
07:26 12.1 °F 10.0 °F 1017.5 in North 4.8 mph 12.9 mph 87 % 0.0 in 14 W/m2
07:31 12.1 °F 10.0 °F 1017.5 in North 6.4 mph 17.7 mph 87 % 0.0 in 18 W/m2
07:36 12.2 °F 10.1 °F 1017.5 in NNE 6.4 mph 16.1 mph 87 % 0.0 in 21 W/m2
07:41 12.2 °F 10.1 °F 1017.2 in North 6.4 mph 14.5 mph 87 % 0.0 in 23 W/m2
07:46 12.2 °F 10.1 °F 1017.5 in NW 4.8 mph 12.9 mph 87 % 0.0 in 26 W/m2
07:51 12.3 °F 10.2 °F 1017.5 in NNE 4.8 mph 16.1 mph 87 % 0.0 in 28 W/m2
07:56 12.3 °F 10.2 °F 1017.5 in North 4.8 mph 11.3 mph 87 % 0.0 in 32 W/m2
08:01 12.3 °F 10.2 °F 1017.5 in North 4.8 mph 11.3 mph 87 % 0.0 in 33 W/m2
08:06 12.4 °F 10.3 °F 1017.5 in North 4.8 mph 12.9 mph 87 % 0.0 in 37 W/m2
08:11 12.4 °F 10.1 °F 1017.5 in North 4.8 mph 12.9 mph 86 % 0.0 in 39 W/m2
08:16 12.4 °F 10.1 °F 1017.5 in North 4.8 mph 16.1 mph 86 % 0.0 in 42 W/m2
08:21 12.5 °F 10.2 °F 1017.5 in North 4.8 mph 19.3 mph 86 % 0.0 in 46 W/m2
08:26 12.6 °F 10.3 °F 1017.5 in North 6.4 mph 17.7 mph 86 % 0.0 in 56 W/m2
08:31 12.7 °F 10.4 °F 1017.5 in North 6.4 mph 17.7 mph 86 % 0.0 in 58 W/m2
08:36 12.8 °F 10.5 °F 1017.5 in North 6.4 mph 9.7 mph 86 % 0.0 in 93 W/m2
08:41 12.8 °F 10.5 °F 1017.2 in North 3.2 mph 16.1 mph 86 % 0.0 in 127.0 W/m2
08:46 12.8 °F 10.3 °F 1017.5 in North 6.4 mph 14.5 mph 85 % 0.0 in 83 W/m2
08:51 12.9 °F 10.4 °F 1017.5 in North 8.0 mph 17.7 mph 85 % 0.0 in 204 W/m2
08:56 13.0 °F 10.6 °F 1017.5 in NNE 6.4 mph 19.3 mph 85 % 0.0 in 227 W/m2
09:11 13.3 °F -73.3 °F -3386.0 in NW 12.9 mph 14.5 mph 84 % 0.0 in 283 W/m2
09:16 13.4 °F 10.8 °F 1017.5 in NE 4.8 mph 12.9 mph 84 % 0.0 in 301 W/m2
09:41 13.9 °F -73.3 °F -3386.0 in NE 4.8 mph 11.3 mph 82 % 0.0 in 371 W/m2
10:01 14.3 °F 10.9 °F 1017.5 in NNE 6.4 mph 14.5 mph 80 % 0.0 in 431 W/m2
10:16 14.7 °F 11.3 °F 1017.5 in North 6.4 mph 11.3 mph 80 % 0.0 in 471 W/m2
10:21 14.6 °F 11.2 °F 1017.5 in NNE 6.4 mph 11.3 mph 80 % 0.0 in 485 W/m2
10:26 14.7 °F 11.1 °F 1017.5 in North 4.8 mph 12.9 mph 79 % 0.0 in 499 W/m2
10:41 15.2 °F 11.9 °F 1017.5 in NNE 4.8 mph 8.0 mph 81 % 0.0 in 540 W/m2
10:51 15.2 °F 11.8 °F 1017.5 in North 4.8 mph 16.1 mph 80 % 0.0 in 564 W/m2
10:56 15.1 °F 11.7 °F 1017.5 in North 6.4 mph 14.5 mph 80 % 0.0 in 578 W/m2
11:01 15.3 °F 11.9 °F 1017.5 in NNE 6.4 mph 8.0 mph 80 % 0.0 in 592 W/m2
11:16 15.9 °F 12.3 °F 1017.5 in NE 3.2 mph 11.3 mph 79 % 0.0 in 631 W/m2
11:36 15.8 °F 12.3 °F 1017.5 in NNW 4.8 mph 12.9 mph 80 % 0.0 in 673 W/m2
11:41 15.3 °F 11.9 °F 1017.5 in NW 6.4 mph 19.3 mph 80 % 0.0 in 682 W/m2
11:46 14.9 °F 11.7 °F 1017.5 in NNW 9.7 mph 20.9 mph 81 % 0.0 in 694 W/m2
11:51 14.6 °F 11.7 °F 1017.8 in NNW 9.7 mph 24.1 mph 83 % 0.0 in 705 W/m2
11:52 14.5 °F 11.7 °F 1017.8 in NNW 11.3 mph 22.5 mph 83 % 0.0 in 705 W/m2
11:57 14.5 °F 11.8 °F 1017.8 in NNW 11.3 mph 19.3 mph 84 % 0.0 in 705 W/m2
12:47 14.2 °F 11.9 °F 1017.5 in NNW 16.1 mph 30.6 mph 86 % 0.0 in 789 W/m2
12:52 14.1 °F 11.8 °F 1017.5 in NNW 17.7 mph 27.4 mph 86 % 0.0 in 807 W/m2
12:57 14.1 °F 11.8 °F 1017.5 in NW 17.7 mph 27.4 mph 86 % 0.0 in 814 W/m2
13:02 14.1 °F 11.8 °F 1017.5 in NNW 14.5 mph 29.0 mph 86 % 0.0 in 817 W/m2
13:07 14.2 °F 11.9 °F 1017.5 in NW 14.5 mph 35.4 mph 86 % 0.0 in 824 W/m2
13:12 14.1 °F 11.8 °F 1017.5 in NW 17.7 mph 35.4 mph 86 % 0.0 in 830 W/m2
13:17 14.2 °F 11.9 °F 1017.5 in NW 17.7 mph 25.7 mph 86 % 0.0 in 835 W/m2
13:37 14.3 °F 11.8 °F 1017.5 in NW 14.5 mph 30.6 mph 85 % 0.0 in 853 W/m2
13:42 14.3 °F 11.8 °F 1017.5 in NW 14.5 mph 27.4 mph 85 % 0.0 in 854 W/m2
14:12 14.1 °F 11.8 °F 1017.2 in NW 17.7 mph 35.4 mph 86 % 0.0 in 874 W/m2
14:27 14.3 °F 11.8 °F 1017.2 in NNW 14.5 mph 30.6 mph 85 % 0.0 in 761 W/m2
14:42 13.9 °F 11.4 °F 1017.2 in NW 17.7 mph 33.8 mph 85 % 0.0 in 747 W/m2
15:02 13.9 °F 11.6 °F 1017.2 in NW 19.3 mph 35.4 mph 86 % 0.0 in 865 W/m2
15:37 13.9 °F 11.6 °F 1016.8 in NNW 16.1 mph 41.8 mph 86 % 0.0 in 849 W/m2
15:42 13.8 °F 11.5 °F 1016.8 in NNW 19.3 mph 40.2 mph 86 % 0.0 in 846 W/m2
15:47 13.9 °F 11.8 °F 1016.8 in NNW 20.9 mph 40.2 mph 87 % 0.0 in 838 W/m2
16:02 13.9 °F 11.8 °F 1016.8 in NW 19.3 mph 30.6 mph 87 % 0.0 in 821 W/m2
16:37 13.8 °F 11.8 °F 1016.8 in NNW 17.7 mph 40.2 mph 88 % 0.0 in 768 W/m2
16:47 13.8 °F 11.8 °F 1016.8 in NW 16.1 mph 32.2 mph 88 % 0.0 in 752 W/m2
17:17 13.7 °F 11.9 °F 1016.5 in NW 17.7 mph 41.8 mph 89 % 0.0 in 693 W/m2
17:42 13.7 °F 11.9 °F 1016.5 in NW 17.7 mph 37.0 mph 89 % 0.0 in 640 W/m2
18:17 13.7 °F 11.9 °F 1016.5 in NW 22.5 mph 37.0 mph 89 % 0.0 in 555 W/m2
18:22 13.8 °F 12.0 °F 1016.5 in NW 20.9 mph 38.6 mph 89 % 0.0 in 543 W/m2
18:27 13.7 °F 11.9 °F 1016.5 in NW 19.3 mph 35.4 mph 89 % 0.0 in 527 W/m2
18:32 13.8 °F 12.2 °F 1016.5 in NW 17.7 mph 30.6 mph 90 % 0.0 in 515 W/m2
18:37 13.7 °F 11.9 °F 1016.5 in NNW 16.1 mph 29.0 mph 89 % 0.0 in 501 W/m2
19:12 13.6 °F 11.8 °F 1016.5 in NW 19.3 mph 37.0 mph 89 % 0.0 in 392 W/m2
19:17 13.6 °F 12.0 °F 1016.5 in NNW 20.9 mph 33.8 mph 90 % 0.0 in 195 W/m2
19:22 13.6 °F 12.0 °F 1016.5 in NNW 20.9 mph 32.2 mph 90 % 0.0 in 155 W/m2
19:42 13.6 °F 11.8 °F 1016.5 in NW 17.7 mph 30.6 mph 89 % 0.0 in 239 W/m2
19:47 13.6 °F 11.8 °F 1016.5 in NW 17.7 mph 33.8 mph 89 % 0.0 in 144 W/m2
19:58 13.5 °F 11.7 °F 1016.5 in NW 17.7 mph 29.0 mph 89 % 0.0 in 83 W/m2
20:03 13.5 °F 11.9 °F 1016.5 in NW 17.7 mph 32.2 mph 90 % 0.0 in 181 W/m2
20:08 13.6 °F 12.0 °F 1016.5 in NW 16.1 mph 32.2 mph 90 % 0.0 in 125 W/m2
20:13 13.5 °F 11.9 °F 1016.5 in NW 16.1 mph 32.2 mph 90 % 0.0 in 86 W/m2
20:18 13.4 °F 11.8 °F 1016.5 in NW 16.1 mph 25.7 mph 90 % 0.0 in 93 W/m2
20:23 13.4 °F 11.8 °F 1016.5 in NW 14.5 mph 24.1 mph 90 % 0.0 in 88 W/m2
20:28 13.4 °F 11.8 °F 1016.5 in NNW 14.5 mph 24.1 mph 90 % 0.0 in 60 W/m2
20:33 13.4 °F 11.8 °F 1016.5 in NW 14.5 mph 29.0 mph 90 % 0.0 in 49 W/m2
20:38 13.4 °F 11.8 °F 1016.5 in NW 14.5 mph 35.4 mph 90 % 0.0 in 49 W/m2
20:43 13.4 °F 11.8 °F 1016.5 in NNW 16.1 mph 25.7 mph 90 % 0.0 in 39 W/m2
20:48 13.4 °F 11.8 °F 1016.8 in NNW 16.1 mph 32.2 mph 90 % 0.0 in 39 W/m2
20:53 13.4 °F 11.8 °F 1016.8 in NW 16.1 mph 25.7 mph 90 % 0.0 in 62 W/m2
21:08 13.7 °F 12.1 °F 1016.8 in NW 11.3 mph 22.5 mph 90 % 0.0 in 62 W/m2
21:13 13.8 °F 12.0 °F 1016.5 in NNW 11.3 mph 27.4 mph 89 % 0.0 in 44 W/m2
21:18 13.8 °F 12.0 °F 1016.5 in NNW 8.0 mph 22.5 mph 89 % 0.0 in 30 W/m2
21:53 13.3 °F 11.7 °F 1016.8 in NW 9.7 mph 20.9 mph 90 % 0.0 in 0 W/m2
22:03 13.3 °F -73.3 °F -3386.0 in NNW 14.5 mph 24.1 mph 91 % 0.0 in 0 W/m2
22:13 13.3 °F -73.3 °F -3386.0 in WSW 8.0 mph 22.5 mph 91 % 0.0 in 0 W/m2
22:18 13.3 °F -73.3 °F -3386.0 in NW 11.3 mph 25.7 mph 91 % 0.0 in 0 W/m2
22:23 13.3 °F -73.3 °F -3386.0 in NW 9.7 mph 24.1 mph 91 % 0.0 in 0 W/m2
22:28 13.3 °F -73.3 °F -3386.0 in NNW 9.7 mph 19.3 mph 91 % 0.0 in 0 W/m2
22:34 13.3 °F -73.3 °F -3386.0 in WNW 4.8 mph 25.7 mph 91 % 0.0 in 0 W/m2
22:49 13.2 °F 11.8 °F 1017.5 in NW 12.9 mph 25.7 mph 91 % 0.0 in 0 W/m2
22:53 13.2 °F 11.8 °F 1017.5 in WNW 12.9 mph 20.9 mph 91 % 0.0 in 0 W/m2
22:58 13.3 °F 11.9 °F 1017.8 in NW 12.9 mph 22.5 mph 91 % 0.0 in 0 W/m2
23:04 13.3 °F 11.9 °F 1017.8 in NNW 11.3 mph 24.1 mph 91 % 0.0 in 0 W/m2
23:29 13.3 °F -73.3 °F -3386.0 in NNW 4.8 mph 24.1 mph 91 % 0.0 in 0 W/m2
23:33 13.3 °F 11.9 °F 1017.8 in NNW 9.7 mph 16.1 mph 91 % 0.0 in 0 W/m2
23:38 13.4 °F 11.8 °F 1018.2 in NNW 9.7 mph 12.9 mph 90 % 0.0 in 0 W/m2
23:43 13.3 °F 11.7 °F 1018.2 in NNE 8.0 mph 12.9 mph 90 % 0.0 in 0 W/m2
23:48 13.3 °F 11.7 °F 1018.2 in NNE 6.4 mph 19.3 mph 90 % 0.0 in 0 W/m2
23:54 13.3 °F 11.5 °F 1018.2 in NNE 6.4 mph 14.5 mph 89 % 0.0 in 0 W/m2
Meteocoruña
Agradecimientos a Weather Underground - 2.75 mb